• Join FlightAware (Why Join?)
  • Login
  • US Flag 
05:49AM EST


 

Airport Tracker/Info


-or-


 

Live Flight TrackerFlight Track Log ✈ DAL3673 ✈ 26-Apr-2013 ✈ KMSP - KLSE

Flight Track Log - Related Links

Times and Time Zones

All times are in EDT time to prevent confusion due to time zone crossing. See the DAL3673 flight status page for this flight to view local times or setup timezone preferences in your user account.

Time Position Orientation Groundspeed Altitude Reporting Facility
EDT Latitude Longitude Course Direction KTS MPH feet Rate Location/Type
03:35PM 44.9000 -93.2667 164° South 176 203 3,400  Level Minneapolis TRACON
03:35PM 44.8967 -93.3033 263° West 195 224 4,400 2,220 Climbing Minneapolis Center
03:36PM 44.8711 -93.3764 244° Southwest 233 268 6,700 2,280 Climbing Minneapolis Center
03:37PM 44.7304 -92.9161 139° Southeast  Level Estimated
03:37PM 44.7956 -93.3664 175° South 282 325 9,200  Level Minneapolis Center
03:38PM 44.6457 -92.8818 164° South  Level FlightAware Approximate
03:38PM 44.7311 -93.2517 128° Southeast 335 386 10,900  Level Minneapolis Center
03:39PM 44.5979 -92.7777 141° Southeast  Level Estimated
03:39PM 44.6781 -93.1328 122° Southeast 374 430 11,000  Level Minneapolis Center
03:40PM 44.5133 -92.7428 164° South  Level FlightAware Approximate
03:40PM 44.6236 -93.0006 120° Southeast 392 451 11,000  Level Minneapolis Center
03:41PM 44.5681 -92.8672 120° Southeast 398 458 11,000  Level Minneapolis Center
03:42PM 44.5000 -92.7039 120° Southeast 407 468 11,000  Level Minneapolis Center
03:43PM 44.4433 -92.5686 120° Southeast 405 466 11,000  Level Minneapolis Center
03:44PM 44.3872 -92.4350 120° Southeast 400 460 11,000  Level Minneapolis Center
03:46PM 44.3242 -92.2894 121° Southeast 401 461 11,000  Level Minneapolis Center
03:47PM 44.2556 -92.1261 120° Southeast 392 451 11,000  Level Minneapolis Center
03:48PM 44.2006 -91.9969 121° Southeast 391 450 11,000  Level Minneapolis Center
03:49PM 44.1406 -91.8589 121° Southeast 389 448 11,000 -420 Level Minneapolis Center
03:50PM 44.0925 -91.7469 121° Southeast 337 388 10,200 -1,380 Descending Minneapolis Center
03:51PM 44.0456 -91.6397 121° Southeast 303 349 8,200 -1,980 Descending Minneapolis Center
03:52PM 44.0064 -91.5419 119° Southeast 295 339 6,200 -2,040 Descending Minneapolis Center
03:53PM 43.9806 -91.4342 108° East 275 316 4,100 -1,080 Descending Minneapolis Center
03:54PM 43.9606 -91.3500 108° East 230 265 4,000 -60 Descending Minneapolis Center
03:55PM 43.9919 -91.2981 50° Northeast 212 244 4,000  Level Minneapolis Center
03:56PM 44.0392 -91.2733 21° North 208 239 4,000 -600 Level Minneapolis Center
03:57PM 44.0003 -91.2536 160° South 171 197 2,800 -1,200 Descending Minneapolis Center